createdAt,value
2018-01-04T00:01:49.060Z,98872.94
2018-01-04T00:04:16.722Z,98878.66
2018-01-04T00:06:44.395Z,98885.41
2018-01-04T00:09:12.114Z,98885.63
2018-01-04T00:11:39.766Z,98900.89
2018-01-04T00:14:07.511Z,98906.30
2018-01-04T00:16:35.106Z,98911.52
2018-01-04T00:19:02.710Z,98913.27
2018-01-04T00:21:30.313Z,98918.50
2018-01-04T00:23:57.962Z,98916.16
2018-01-04T00:26:25.558Z,98916.44
2018-01-04T00:28:53.162Z,98916.44
2018-01-04T00:31:20.782Z,98917.62
2018-01-04T00:33:48.422Z,98921.80
2018-01-04T00:36:16.127Z,98921.31
2018-01-04T00:38:43.731Z,98916.22
2018-01-04T00:41:11.327Z,98915.66
2018-01-04T00:43:38.998Z,98914.26
2018-01-04T00:46:06.660Z,98915.54
2018-01-04T00:48:34.378Z,98916.73
2018-01-04T00:51:01.974Z,98914.09
2018-01-04T00:53:29.571Z,98924.47
2018-01-04T00:55:57.322Z,98922.66
2018-01-04T00:58:24.927Z,98924.61
2018-01-04T01:00:52.607Z,98923.28
2018-01-04T01:03:20.211Z,98918.00
2018-01-04T01:05:47.819Z,98915.31
2018-01-04T01:08:15.418Z,98921.03
2018-01-04T01:10:43.023Z,98919.65
2018-01-04T01:13:10.747Z,98920.75
2018-01-04T01:15:38.382Z,98918.59
2018-01-04T01:18:05.982Z,98911.95
2018-01-04T01:20:33.643Z,98912.10
2018-01-04T01:23:01.236Z,98903.41
2018-01-04T01:25:28.948Z,98903.89
2018-01-04T01:27:56.602Z,98897.55
2018-01-04T01:30:24.206Z,98902.52
2018-01-04T01:32:51.811Z,98901.00
2018-01-04T01:35:19.414Z,98905.23
2018-01-04T01:37:47.094Z,98904.00
2018-01-04T01:40:14.687Z,98908.52
2018-01-04T01:42:42.290Z,98907.22
2018-01-04T01:45:09.898Z,98906.72
2018-01-04T01:47:37.579Z,98907.70
2018-01-04T01:50:05.242Z,98905.80
2018-01-04T01:52:32.835Z,98900.84
2018-01-04T01:55:00.439Z,98902.09
2018-01-04T01:57:28.103Z,98900.72
2018-01-04T01:59:55.702Z,98891.55
2018-01-04T02:02:23.373Z,98890.11
2018-01-04T02:04:50.970Z,98890.95
2018-01-04T02:07:18.646Z,98888.39
2018-01-04T02:09:46.251Z,98884.45
2018-01-04T02:12:13.914Z,98887.80
2018-01-04T02:14:41.570Z,98878.80
2018-01-04T02:17:09.166Z,98885.83
2018-01-04T02:19:48.567Z,98875.87
2018-01-04T02:22:28.106Z,98876.83
2018-01-04T02:25:07.758Z,98881.50
2018-01-04T02:27:47.206Z,98879.45
2018-01-04T02:30:26.602Z,98877.26
2018-01-04T02:33:05.867Z,98875.22
2018-01-04T02:35:45.430Z,98869.41
2018-01-04T02:38:24.800Z,98856.65
2018-01-04T02:41:05.966Z,98841.81
2018-01-04T02:43:45.427Z,98839.75
2018-01-04T02:46:23.782Z,98853.27
2018-01-04T02:48:51.387Z,98843.25
2018-01-04T02:51:18.994Z,98846.30
2018-01-04T02:53:46.667Z,98850.44
2018-01-04T02:56:14.327Z,98853.28
2018-01-04T02:58:41.999Z,98851.31
2018-01-04T03:01:09.675Z,98849.08
2018-01-04T03:03:37.335Z,98852.75
2018-01-04T03:06:04.950Z,98856.85
2018-01-04T03:08:32.559Z,98858.59
2018-01-04T03:11:00.206Z,98855.64
2018-01-04T03:13:27.798Z,98854.97
2018-01-04T03:15:55.458Z,98853.81
2018-01-04T03:18:23.066Z,98855.52
2018-01-04T03:20:50.659Z,98859.50
2018-01-04T03:23:23.850Z,98856.19
2018-01-04T03:25:56.961Z,98861.80
2018-01-04T03:28:30.099Z,98863.98
2018-01-04T03:31:03.196Z,98858.72
2018-01-04T03:33:36.452Z,98855.03
2018-01-04T03:36:09.554Z,98862.26
2018-01-04T03:38:42.763Z,98860.20
2018-01-04T03:41:16.010Z,98860.00
2018-01-04T03:43:49.303Z,98862.92
2018-01-04T03:46:22.618Z,98862.36
2018-01-04T03:48:55.812Z,98866.34
2018-01-04T03:51:29.176Z,98854.56
2018-01-04T03:54:02.369Z,98872.47
2018-01-04T03:56:35.487Z,98865.70
2018-01-04T03:59:08.730Z,98867.20
2018-01-04T04:01:41.947Z,98869.37
2018-01-04T04:04:15.247Z,98873.13
2018-01-04T04:06:42.903Z,98876.34
2018-01-04T04:09:10.502Z,98870.38
2018-01-04T04:11:38.167Z,98863.89
2018-01-04T04:14:05.765Z,98865.77
2018-01-04T04:16:33.414Z,98867.34
2018-01-04T04:19:01.013Z,98863.57
2018-01-04T04:21:28.607Z,98857.47
2018-01-04T04:23:56.215Z,98856.55
2018-01-04T04:26:23.823Z,98856.83
2018-01-04T04:28:51.477Z,98856.52
2018-01-04T04:31:19.086Z,98854.28
2018-01-04T04:33:46.743Z,98853.30
2018-01-04T04:36:14.419Z,98859.95
2018-01-04T04:38:42.023Z,98865.23
2018-01-04T04:41:09.684Z,98873.70
2018-01-04T04:43:37.352Z,98873.83
2018-01-04T04:46:05.012Z,98872.03
2018-01-04T04:48:32.680Z,98877.98
2018-01-04T04:51:00.338Z,98885.71
2018-01-04T04:53:27.991Z,98884.41
2018-01-04T04:55:55.590Z,98887.19
2018-01-04T04:58:23.188Z,98881.32
2018-01-04T05:00:50.851Z,98886.99
2018-01-04T05:03:18.472Z,98883.30
2018-01-04T05:05:46.150Z,98890.41
2018-01-04T05:08:13.743Z,98891.79
2018-01-04T05:10:41.342Z,98897.61
2018-01-04T05:13:08.950Z,98900.31
2018-01-04T05:15:36.543Z,98900.38
2018-01-04T05:18:04.262Z,98901.52
2018-01-04T05:20:31.859Z,98898.64
2018-01-04T05:22:59.458Z,98905.56
2018-01-04T05:25:27.058Z,98903.16
2018-01-04T05:27:54.710Z,98914.20
2018-01-04T05:30:22.423Z,98905.97
2018-01-04T05:32:50.022Z,98913.14
2018-01-04T05:35:17.615Z,98913.27
2018-01-04T05:37:45.282Z,98912.74
2018-01-04T05:40:12.878Z,98922.94
2018-01-04T05:42:40.596Z,98927.76
2018-01-04T05:45:08.192Z,98930.14
2018-01-04T05:47:35.789Z,98934.32
2018-01-04T05:50:03.401Z,98938.74
2018-01-04T05:52:30.998Z,98946.83
2018-01-04T05:54:58.646Z,98938.11
2018-01-04T05:57:26.243Z,98938.74
2018-01-04T05:59:53.902Z,98946.55
2018-01-04T06:02:21.511Z,98949.21
2018-01-04T06:04:49.124Z,98941.59
2018-01-04T06:07:16.831Z,98951.52
2018-01-04T06:09:44.429Z,98964.55
2018-01-04T06:12:12.078Z,98965.55
2018-01-04T06:14:39.682Z,98958.70
2018-01-04T06:17:07.278Z,98954.45
2018-01-04T06:19:35.005Z,98973.42
2018-01-04T06:22:02.667Z,98972.24
2018-01-04T06:24:30.260Z,98975.41
2018-01-04T06:26:57.861Z,98978.19
2018-01-04T06:29:25.459Z,98971.77
2018-01-04T06:31:53.175Z,98974.20
2018-01-04T06:34:20.774Z,98976.56
2018-01-04T06:36:48.431Z,98982.31
2018-01-04T06:39:16.038Z,98984.11
2018-01-04T06:41:43.697Z,98998.00
2018-01-04T06:44:11.456Z,98998.48
2018-01-04T06:46:39.059Z,99003.39
2018-01-04T06:49:06.658Z,99002.22
2018-01-04T06:51:34.319Z,99004.50
2018-01-04T06:54:01.923Z,99005.56
2018-01-04T06:56:29.570Z,99006.66
2018-01-04T06:58:57.335Z,99018.05
2018-01-04T07:01:24.985Z,99017.61
2018-01-04T07:03:52.606Z,99020.05
2018-01-04T07:06:20.265Z,99027.48
2018-01-04T07:08:47.986Z,99031.81
2018-01-04T07:11:15.591Z,99031.70
2018-01-04T07:13:43.255Z,99037.20
2018-01-04T07:16:10.862Z,99039.92
2018-01-04T07:18:38.519Z,99047.89
2018-01-04T07:21:06.177Z,99055.87
2018-01-04T07:23:33.834Z,99053.73
2018-01-04T07:26:01.430Z,99063.09
2018-01-04T07:28:29.041Z,99057.16
2018-01-04T07:30:56.707Z,99065.67
2018-01-04T07:33:24.420Z,99065.19
2018-01-04T07:35:52.014Z,99063.70
2018-01-04T07:38:19.803Z,99067.51
2018-01-04T07:40:47.467Z,99075.11
2018-01-04T07:43:15.071Z,99077.92
2018-01-04T07:45:42.722Z,99088.08
2018-01-04T07:48:10.319Z,99083.55
2018-01-04T07:50:37.930Z,99086.25
2018-01-04T07:53:05.603Z,99093.52
2018-01-04T07:55:33.207Z,99095.00
2018-01-04T07:58:00.919Z,99093.63
2018-01-04T08:00:28.579Z,99088.92
2018-01-04T08:02:56.175Z,99090.39
2018-01-04T08:05:23.787Z,99089.45
2018-01-04T08:07:51.446Z,99095.78
2018-01-04T08:10:19.199Z,99088.56
2018-01-04T08:12:46.859Z,99089.09
2018-01-04T08:15:14.459Z,99091.44
2018-01-04T08:17:42.074Z,99096.88
2018-01-04T08:20:09.742Z,99097.54
2018-01-04T08:22:37.394Z,99104.24
2018-01-04T08:25:04.991Z,99102.16
2018-01-04T08:27:32.591Z,99103.55
2018-01-04T08:30:00.306Z,99106.40
2018-01-04T08:32:27.909Z,99107.38
2018-01-04T08:34:55.675Z,99096.84
2018-01-04T08:37:23.331Z,99104.61
2018-01-04T08:39:50.930Z,99116.70
2018-01-04T08:42:18.625Z,99107.98
2018-01-04T08:44:46.222Z,99102.27
2018-01-04T08:47:13.878Z,99108.12
2018-01-04T08:49:41.474Z,99106.28
2018-01-04T08:52:09.069Z,99098.33
2018-01-04T08:54:36.676Z,99099.02
2018-01-04T08:57:04.391Z,99100.80
2018-01-04T08:59:32.068Z,99098.94
2018-01-04T09:01:59.661Z,99098.12
2018-01-04T09:04:27.265Z,99091.23
2018-01-04T09:06:54.877Z,99092.28
2018-01-04T09:09:22.542Z,99096.65
2018-01-04T09:11:50.186Z,99098.42
2018-01-04T09:14:17.780Z,99090.77
2018-01-04T09:16:45.434Z,99088.88
2018-01-04T09:19:13.051Z,99096.41
2018-01-04T09:21:40.646Z,99090.30
2018-01-04T09:24:08.383Z,99088.95
2018-01-04T09:26:35.979Z,99083.02
2018-01-04T09:29:03.582Z,99085.45
2018-01-04T09:31:31.251Z,99082.11
2018-01-04T09:33:58.871Z,99080.91
2018-01-04T09:36:26.527Z,99079.98
2018-01-04T09:38:54.135Z,99082.52
2018-01-04T09:41:21.735Z,99079.27
2018-01-04T09:43:49.344Z,99080.91
2018-01-04T09:46:16.943Z,99081.92
2018-01-04T09:48:44.658Z,99082.93
2018-01-04T09:51:12.538Z,99084.87
2018-01-04T09:53:40.140Z,99085.25
2018-01-04T09:56:07.758Z,99082.25
2018-01-04T09:58:35.415Z,99079.50
2018-01-04T10:01:03.163Z,99083.35
2018-01-04T10:03:30.819Z,99086.17
2018-01-04T10:05:58.474Z,99082.69
2018-01-04T10:08:26.078Z,99085.07
2018-01-04T10:10:53.674Z,99077.09
2018-01-04T10:13:21.335Z,99083.64
2018-01-04T10:15:48.942Z,99082.80
2018-01-04T10:18:16.598Z,99073.94
2018-01-04T10:20:44.202Z,99079.37
2018-01-04T10:23:11.863Z,99082.62
2018-01-04T10:25:39.572Z,99081.19
2018-01-04T10:28:07.234Z,99074.75
2018-01-04T10:30:34.830Z,99074.31
2018-01-04T10:33:02.463Z,99071.84
2018-01-04T10:35:30.115Z,99080.40
2018-01-04T10:37:57.766Z,99071.45
2018-01-04T10:40:25.436Z,99074.56
2018-01-04T10:42:53.042Z,99067.69
2018-01-04T10:45:20.660Z,99066.20
2018-01-04T10:47:48.328Z,99064.48
2018-01-04T10:50:15.978Z,99055.03
2018-01-04T10:52:43.574Z,99059.89
2018-01-04T10:55:11.179Z,99058.97
2018-01-04T10:57:38.798Z,99054.84
2018-01-04T11:00:06.398Z,99052.94
2018-01-04T11:02:34.115Z,99053.19
2018-01-04T11:05:01.706Z,99050.00
2018-01-04T11:07:29.306Z,99048.72
2018-01-04T11:09:56.974Z,99048.98
2018-01-04T11:12:24.690Z,99050.80
2018-01-04T11:14:52.345Z,99049.90
2018-01-04T11:17:20.006Z,99049.39
2018-01-04T11:19:47.602Z,99048.74
2018-01-04T11:22:15.211Z,99052.23
2018-01-04T11:24:42.870Z,99057.56
2018-01-04T11:27:10.603Z,99050.86
2018-01-04T11:29:38.257Z,99060.38
2018-01-04T11:32:05.858Z,99054.72
2018-01-04T11:34:33.470Z,99057.73
2018-01-04T11:37:01.071Z,99056.58
2018-01-04T11:39:28.774Z,99052.53
